Time;durP1;ratioP1;P1;durP2;ratioP2;P2;SDS_P1;SDS_P2;PMS_P1;PMS_P2;Temp;Humidity;BMP_temperature;BMP_pressure;BME280_temperature;BME280_humidity;BME280_pressure;Samples;Min_cycle;Max_cycle;Signal;HPM_P1;HPM_P2
2022/08/31 00:04:52;;;;;;;1.67;1.55;;;;;;;15.49;nan;102097.16;5017494;28;20472;-56
2022/08/31 00:07:17;;;;;;;3.92;1.45;;;;;;;15.72;nan;102132.66;5032016;28;20064;-57
2022/08/31 00:09:42;;;;;;;2.38;1.63;;;;;;;15.68;nan;102141.63;5048780;28;20034;-56
2022/08/31 00:12:08;;;;;;;3.05;1.63;;;;;;;15.66;nan;102135.50;5016504;28;20040;-57
2022/08/31 00:14:33;;;;;;;3.33;1.35;;;;;;;15.68;nan;102149.59;5034017;28;20046;-56
2022/08/31 00:16:59;;;;;;;4.25;1.83;;;;;;;15.60;nan;102126.88;5033747;28;20045;-54
2022/08/31 00:19:24;;;;;;;1.60;1.35;;;;;;;15.64;nan;102139.13;5033152;28;20033;-57
2022/08/31 00:21:50;;;;;;;2.05;1.60;;;;;;;15.64;nan;102137.31;5033066;28;20396;-54
2022/08/31 00:24:15;;;;;;;1.42;1.30;;;;;;;15.63;nan;102130.31;5033397;28;20032;-56
2022/08/31 00:26:41;;;;;;;2.15;1.50;;;;;;;15.53;nan;102130.63;5033019;28;20112;-59
2022/08/31 00:29:07;;;;;;;3.00;1.65;;;;;;;15.56;nan;102144.69;5016027;28;20462;-55
2022/08/31 00:31:32;;;;;;;1.73;1.63;;;;;;;15.56;nan;102141.16;5033486;28;20041;-57
2022/08/31 00:33:58;;;;;;;2.40;1.77;;;;;;;15.55;nan;102137.66;5015740;28;20497;-54
2022/08/31 00:36:25;;;;;;;2.70;1.67;;;;;;;15.53;nan;102146.56;5033347;28;20124;-51
2022/08/31 00:38:51;;;;;;;3.50;1.88;;;;;;;15.23;nan;102090.03;5033455;28;20036;-55
2022/08/31 00:41:19;;;;;;;2.97;1.75;;;;;;;15.22;nan;102090.94;5033169;28;20053;-55
2022/08/31 00:43:49;;;;;;;4.18;1.50;;;;;;;15.50;nan;102141.38;5033170;28;20030;-57
2022/08/31 00:46:24;;;;;;;1.67;1.30;;;;;;;15.47;nan;102144.13;5033432;28;20029;-57
2022/08/31 00:49:13;;;;;;;1.42;1.30;;;;;;;15.44;nan;102138.88;5015409;28;20025;-54
2022/08/31 00:52:02;;;;;;;2.53;1.38;;;;;;;15.37;nan;102132.03;5015399;28;20159;-54
2022/08/31 00:54:35;;;;;;;4.32;1.38;;;;;;;15.33;nan;102133.03;5032305;28;20075;-56
2022/08/31 00:57:02;;;;;;;2.20;1.58;;;;;;;15.35;nan;102152.44;5015309;28;20492;-54
2022/08/31 00:59:28;;;;;;;3.67;1.60;;;;;;;15.03;nan;102095.09;5015251;28;20432;-56
2022/08/31 01:01:53;;;;;;;1.77;1.20;;;;;;;15.25;nan;102138.59;5033259;28;20087;-55
2022/08/31 01:04:18;;;;;;;1.63;1.52;;;;;;;14.99;nan;102101.38;5033108;28;20049;-53
2022/08/31 01:06:45;;;;;;;1.73;1.52;;;;;;;15.14;nan;102136.28;5032448;28;20496;-58
2022/08/31 01:09:11;;;;;;;2.55;1.52;;;;;;;14.98;nan;102111.13;5032898;28;20030;-55
2022/08/31 01:11:38;;;;;;;2.25;1.55;;;;;;;14.79;nan;102091.41;4998556;28;20427;-56
2022/08/31 01:14:03;;;;;;;3.60;1.40;;;;;;;15.11;nan;102148.75;5014686;28;20053;-53
2022/08/31 01:16:34;;;;;;;3.25;1.58;;;;;;;15.08;nan;102156.81;5032734;28;20037;-55
2022/08/31 01:19:02;;;;;;;4.47;1.45;;;;;;;15.03;nan;102156.91;5015173;28;20146;-55
2022/08/31 01:21:33;;;;;;;1.83;1.52;;;;;;;15.05;nan;102148.94;5014670;28;20477;-59
2022/08/31 01:24:00;;;;;;;1.90;1.40;;;;;;;14.68;nan;102084.69;5048002;28;20051;-57
2022/08/31 01:26:28;;;;;;;1.30;1.20;;;;;;;14.95;nan;102148.34;5014956;28;20033;-54
2022/08/31 01:28:57;;;;;;;2.65;1.52;;;;;;;14.90;nan;102136.13;5032682;28;20065;-56
2022/08/31 01:31:27;;;;;;;1.85;1.60;;;;;;;14.72;nan;102108.38;5046800;28;20473;-59
2022/08/31 01:33:53;;;;;;;1.42;1.33;;;;;;;14.83;nan;102137.22;5032559;28;20026;-50
2022/08/31 01:39:05;;;;;;;1.92;1.70;;;;;;;14.87;nan;102147.69;5032586;28;20080;-56
2022/08/31 01:41:30;;;;;;;3.35;1.55;;;;;;;14.84;nan;102142.47;5047854;28;20041;-55
2022/08/31 01:43:56;;;;;;;6.63;1.83;;;;;;;14.71;nan;102124.34;5032365;28;20106;-55
2022/08/31 01:46:21;;;;;;;3.83;1.33;;;;;;;14.51;nan;102086.03;5032016;28;20050;-57
2022/08/31 01:48:47;;;;;;;2.10;1.55;;;;;;;14.78;nan;102136.50;5032240;28;20029;-57
2022/08/31 01:51:16;;;;;;;1.42;1.33;;;;;;;14.76;nan;102143.63;5047518;28;20049;-56
2022/08/31 01:53:43;;;;;;;2.90;1.70;;;;;;;14.71;nan;102141.09;5032116;28;20025;-56
2022/08/31 01:56:43;;;;;;;3.75;1.67;;;;;;;14.69;nan;102147.34;5032133;28;20061;-57
2022/08/31 01:59:10;;;;;;;1.60;1.42;;;;;;;14.33;nan;102080.41;5029006;28;20401;-55
2022/08/31 02:01:39;;;;;;;2.03;1.60;;;;;;;14.25;nan;102075.25;5032034;28;20037;-56
2022/08/31 02:04:06;;;;;;;3.85;1.58;;;;;;;14.51;nan;102127.53;5047575;28;20619;-55
2022/08/31 02:06:32;;;;;;;2.88;1.30;;;;;;;14.22;nan;102085.06;5032250;28;20134;-56
2022/08/31 02:08:58;;;;;;;2.90;1.40;;;;;;;14.23;nan;102086.81;5047656;28;20029;-56
2022/08/31 02:11:23;;;;;;;4.68;1.60;;;;;;;14.30;nan;102106.94;5014205;28;20503;-56
2022/08/31 02:13:49;;;;;;;1.90;1.52;;;;;;;14.51;nan;102146.97;5014155;28;20037;-58
2022/08/31 02:16:15;;;;;;;4.47;1.40;;;;;;;14.51;nan;102154.91;5032036;28;20124;-55
2022/08/31 02:18:40;;;;;;;2.97;1.50;;;;;;;14.52;nan;102143.41;5033975;28;20032;-53
2022/08/31 02:21:06;;;;;;;2.22;1.70;;;;;;;14.48;nan;102149.69;5036351;28;20037;-55
2022/08/31 02:23:31;;;;;;;2.22;1.60;;;;;;;14.48;nan;102135.56;5036041;28;20448;-56
2022/08/31 02:25:57;;;;;;;2.17;1.60;;;;;;;14.53;nan;102150.47;5036037;28;20229;-56
2022/08/31 02:28:22;;;;;;;2.47;1.50;;;;;;;14.38;nan;102121.75;5035969;28;20436;-53
2022/08/31 02:30:47;;;;;;;1.70;1.42;;;;;;;14.51;nan;102151.38;5035516;28;20088;-53
2022/08/31 02:33:13;;;;;;;1.70;1.40;;;;;;;14.42;nan;102130.44;5035738;28;20038;-54
2022/08/31 02:35:40;;;;;;;3.45;1.85;;;;;;;14.48;nan;102146.16;5035580;28;20049;-49
2022/08/31 02:38:06;;;;;;;1.60;1.50;;;;;;;14.46;nan;102148.00;5018014;28;20076;-51
2022/08/31 02:40:31;;;;;;;2.05;1.40;;;;;;;14.37;nan;102138.53;5017345;28;20069;-55
2022/08/31 02:42:57;;;;;;;2.53;1.70;;;;;;;14.38;nan;102136.75;5035379;28;20026;-52
2022/08/31 02:45:22;;;;;;;2.60;1.50;;;;;;;14.12;nan;102089.78;5035307;28;20042;-54
2022/08/31 02:47:48;;;;;;;2.72;1.42;;;;;;;14.35;nan;102134.19;5035425;28;20461;-53
2022/08/31 02:50:13;;;;;;;1.70;1.30;;;;;;;;;;5035427;28;20041;-54
2022/08/31 02:52:38;;;;;;;2.00;1.80;;;;;;;-142.64;100.00;58178.75;5035259;28;20049;-54
2022/08/31 02:55:05;;;;;;;2.10;1.67;;;;;;;-142.64;100.00;58178.75;5035494;28;20033;-54
2022/08/31 02:57:30;;;;;;;2.60;1.55;;;;;;;14.22;nan;102141.56;5035293;28;20157;-55
2022/08/31 02:59:56;;;;;;;3.97;1.73;;;;;;;14.22;nan;102136.25;5035267;28;20073;-54
2022/08/31 03:02:22;;;;;;;2.00;1.65;;;;;;;13.84;nan;102079.03;5034789;28;20120;-56
2022/08/31 03:04:48;;;;;;;2.42;1.70;;;;;;;14.21;nan;102138.97;5035024;28;20480;-57
2022/08/31 03:07:13;;;;;;;2.70;1.80;;;;;;;13.78;nan;102073.91;5017612;28;20044;-52
2022/08/31 03:09:38;;;;;;;2.78;1.60;;;;;;;13.81;nan;102079.09;5035002;28;20029;-55
2022/08/31 03:12:04;;;;;;;6.75;2.15;;;;;;;14.17;nan;102138.16;5034934;28;20388;-59
2022/08/31 03:14:30;;;;;;;2.65;1.90;;;;;;;14.17;nan;102139.94;5016741;28;20049;-57
2022/08/31 03:16:55;;;;;;;1.60;1.50;;;;;;;13.81;nan;102079.09;4999608;28;20068;-54
2022/08/31 03:19:21;;;;;;;6.78;1.73;;;;;;;14.14;nan;102132.09;5034038;28;20056;-57
2022/08/31 03:21:46;;;;;;;3.85;1.70;;;;;;;13.73;nan;102067.88;5033806;28;20053;-56
2022/08/31 03:24:16;;;;;;;2.05;1.77;;;;;;;13.79;nan;102074.78;5048198;28;20396;-57
2022/08/31 03:26:43;;;;;;;2.03;1.40;;;;;;;14.16;nan;102140.84;5033279;28;20059;-56
2022/08/31 03:29:08;;;;;;;2.83;1.65;;;;;;;13.79;nan;102077.41;5033309;28;20033;-56
2022/08/31 03:31:33;;;;;;;2.00;1.67;;;;;;;14.14;nan;102154.13;5033573;28;20046;-57
2022/08/31 03:33:59;;;;;;;1.60;1.50;;;;;;;14.14;nan;102148.84;5033700;28;20116;-58
2022/08/31 03:36:24;;;;;;;2.20;2.00;;;;;;;13.56;nan;102046.25;5033653;28;20030;-57
2022/08/31 03:38:49;;;;;;;3.40;1.60;;;;;;;13.73;nan;102085.50;5033486;28;20395;-55
2022/08/31 03:41:18;;;;;;;6.90;1.90;;;;;;;13.80;nan;102092.41;5033044;28;20037;-54
2022/08/31 03:43:43;;;;;;;3.45;1.90;;;;;;;14.10;nan;102153.34;5015861;28;20056;-54
2022/08/31 03:46:08;;;;;;;2.40;1.98;;;;;;;14.12;nan;102155.09;5015533;28;20053;-55
2022/08/31 03:48:33;;;;;;;3.70;1.67;;;;;;;14.12;nan;102170.97;5033543;28;20065;-56
2022/08/31 03:50:59;;;;;;;1.75;1.50;;;;;;;14.03;nan;102148.25;5032688;28;20053;-56
2022/08/31 03:53:25;;;;;;;1.73;1.63;;;;;;;14.07;nan;102150.78;5033176;28;20460;-57
2022/08/31 03:55:51;;;;;;;2.38;1.67;;;;;;;13.68;nan;102083.00;5015493;28;20042;-61
2022/08/31 03:58:16;;;;;;;2.40;1.73;;;;;;;14.00;nan;102159.81;5033082;28;20043;-53
2022/08/31 04:00:43;;;;;;;3.70;2.03;;;;;;;13.97;nan;102156.34;5015420;28;20038;-55
2022/08/31 04:03:08;;;;;;;3.58;1.83;;;;;;;13.98;nan;102164.25;5032804;28;20036;-56
2022/08/31 04:05:35;;;;;;;1.70;1.60;;;;;;;13.92;nan;102150.31;5032687;28;20484;-55
2022/08/31 04:08:01;;;;;;;3.15;1.50;;;;;;;13.65;nan;102109.53;5032959;28;20041;-58
2022/08/31 04:10:26;;;;;;;3.63;1.60;;;;;;;13.90;nan;102168.00;5032760;28;20041;-53
2022/08/31 04:12:51;;;;;;;2.65;1.80;;;;;;;13.64;nan;102115.72;5032766;28;20374;-56
2022/08/31 04:15:17;;;;;;;2.97;1.75;;;;;;;13.91;nan;102156.50;4992124;28;1175647;-57
2022/08/31 04:17:46;;;;;;;3.90;1.80;;;;;;;13.59;nan;102101.75;5033703;28;20099;-52
2022/08/31 04:20:12;;;;;;;2.00;1.48;;;;;;;13.91;nan;102178.56;5033776;28;20489;-53
2022/08/31 04:22:37;;;;;;;2.60;1.70;;;;;;;13.86;nan;102166.34;5016092;28;20075;-55
2022/08/31 04:25:03;;;;;;;1.63;1.48;;;;;;;13.88;nan;102164.53;5033763;28;20435;-55
2022/08/31 04:27:29;;;;;;;1.75;1.65;;;;;;;13.88;nan;102165.41;4999764;28;20061;-56
2022/08/31 04:29:54;;;;;;;1.92;1.67;;;;;;;13.89;nan;102183.00;5033568;28;20042;-52
2022/08/31 04:32:19;;;;;;;2.92;1.63;;;;;;;13.88;nan;102172.47;5033459;28;20041;-55
2022/08/31 04:34:45;;;;;;;2.42;1.60;;;;;;;13.50;nan;102115.19;5033610;28;20151;-52
2022/08/31 04:37:13;;;;;;;4.22;1.70;;;;;;;13.83;nan;102193.78;5033457;28;20034;-52
2022/08/31 04:39:39;;;;;;;2.00;1.55;;;;;;;13.82;nan;102169.97;5033503;28;20041;-54
2022/08/31 04:42:05;;;;;;;1.50;1.40;;;;;;;13.80;nan;102175.31;5032147;28;20120;-55
2022/08/31 04:44:30;;;;;;;1.40;1.30;;;;;;;13.84;nan;102184.03;5032845;28;20065;-54
2022/08/31 04:46:55;;;;;;;1.88;1.50;;;;;;;13.82;nan;102180.56;5015490;28;20021;-52
2022/08/31 04:49:20;;;;;;;1.52;1.42;;;;;;;13.80;nan;102190.31;5033304;28;20352;-56
2022/08/31 04:51:46;;;;;;;2.22;1.60;;;;;;;13.77;nan;102188.63;5033180;28;20045;-56
2022/08/31 04:54:12;;;;;;;1.80;1.40;;;;;;;13.79;nan;102196.50;5032972;28;20030;-55
2022/08/31 04:56:41;;;;;;;3.35;1.15;;;;;;;13.78;nan;102195.63;4999102;28;20033;-55
2022/08/31 04:59:08;;;;;;;2.25;1.35;;;;;;;13.77;nan;102200.97;5033196;28;20137;-56
2022/08/31 05:01:38;;;;;;;2.30;1.17;;;;;;;13.37;nan;102130.47;5015349;28;20025;-56
2022/08/31 05:04:04;;;;;;;1.80;1.38;;;;;;;13.42;nan;102135.69;5032530;28;20080;-54
2022/08/31 05:06:32;;;;;;;2.10;1.30;;;;;;;13.63;nan;102180.13;5014635;28;20040;-55
2022/08/31 05:09:06;;;;;;;1.83;1.00;;;;;;;13.43;nan;102145.31;5031533;28;20032;-56
2022/08/31 05:11:32;;;;;;;1.90;0.70;;;;;;;13.70;nan;102188.78;5030934;28;20041;-57
2022/08/31 05:13:59;;;;;;;1.23;1.00;;;;;;;13.42;nan;102151.53;5014499;28;20056;-57
2022/08/31 05:16:25;;;;;;;1.58;0.90;;;;;;;13.75;nan;102218.66;5031012;28;20477;-56
2022/08/31 05:18:50;;;;;;;1.83;1.00;;;;;;;13.38;nan;102148.09;5031029;28;20033;-55
2022/08/31 05:21:29;;;;;;;1.10;1.00;;;;;;;13.81;nan;102218.50;5031774;28;20099;-54
2022/08/31 05:23:57;;;;;;;0.80;0.70;;;;;;;13.85;nan;102230.78;5045859;28;20033;-55
2022/08/31 05:26:24;;;;;;;1.40;0.73;;;;;;;13.88;nan;102218.34;5013302;28;20026;-55
2022/08/31 05:28:50;;;;;;;3.05;0.73;;;;;;;13.91;nan;102222.69;5030555;28;20026;-58
2022/08/31 05:31:15;;;;;;;1.88;1.00;;;;;;;13.61;nan;102168.72;5030293;28;20067;-55
2022/08/31 05:33:41;;;;;;;1.00;0.80;;;;;;;13.94;nan;102228.78;5032221;28;20164;-54
2022/08/31 05:36:07;;;;;;;3.72;1.15;;;;;;;13.76;nan;102180.69;5031305;28;20106;-57
2022/08/31 05:38:34;;;;;;;1.92;0.75;;;;;;;14.08;nan;102239.91;5047075;28;20551;-58
2022/08/31 05:40:59;;;;;;;4.10;1.10;;;;;;;14.07;nan;102214.31;5014480;28;20041;-56
2022/08/31 05:43:25;;;;;;;1.85;1.25;;;;;;;14.21;nan;102232.53;5014467;28;20048;-54
2022/08/31 05:45:50;;;;;;;2.50;0.75;;;;;;;14.25;nan;102235.94;5032335;28;20038;-55
2022/08/31 05:48:16;;;;;;;1.85;1.05;;;;;;;14.31;nan;102217.25;5032046;28;20475;-56
2022/08/31 05:50:42;;;;;;;0.90;0.77;;;;;;;13.93;nan;102152.03;5031906;28;20037;-56
2022/08/31 05:53:07;;;;;;;5.65;0.93;;;;;;;14.40;nan;102225.88;5031756;28;20057;-55
2022/08/31 05:55:33;;;;;;;1.65;0.73;;;;;;;14.14;nan;102170.03;5014507;28;20029;-55
2022/08/31 05:57:59;;;;;;;3.72;0.90;;;;;;;14.13;nan;102147.09;5032164;28;20116;-53
2022/08/31 06:00:24;;;;;;;0.82;0.77;;;;;;;14.57;nan;102212.16;5032153;28;20481;-53
2022/08/31 06:02:50;;;;;;;1.77;0.85;;;;;;;14.26;nan;102153.81;5031768;28;20044;-55
2022/08/31 06:05:15;;;;;;;0.93;0.82;;;;;;;14.57;nan;102207.72;5032171;28;20037;-56
2022/08/31 06:07:41;;;;;;;1.73;0.77;;;;;;;14.72;nan;102229.44;5031778;28;20033;-55
2022/08/31 06:10:06;;;;;;;1.00;0.90;;;;;;;14.40;nan;102162.28;5032258;28;20045;-52
2022/08/31 06:12:33;;;;;;;1.85;0.80;;;;;;;14.45;nan;102164.81;5032015;28;20029;-54
2022/08/31 06:15:00;;;;;;;1.55;0.95;;;;;;;14.52;nan;102166.38;5031352;28;20519;-52
2022/08/31 06:17:27;;;;;;;2.05;0.80;;;;;;;14.92;nan;102229.72;5031702;28;20038;-59
2022/08/31 06:19:54;;;;;;;1.10;0.85;;;;;;;14.84;nan;102210.53;5014407;28;20488;-54
2022/08/31 06:22:20;;;;;;;0.68;0.68;;;;;;;14.71;nan;102170.25;5031829;28;20033;-52
2022/08/31 06:24:45;;;;;;;2.72;0.90;;;;;;;15.06;nan;102231.09;5032065;28;20035;-53
2022/08/31 06:27:10;;;;;;;1.02;0.80;;;;;;;15.14;nan;102234.41;5032002;28;20405;-57
2022/08/31 06:29:36;;;;;;;1.70;0.80;;;;;;;14.87;nan;102168.91;5031682;28;20092;-54
2022/08/31 06:32:06;;;;;;;0.80;0.68;;;;;;;15.33;nan;102234.72;5030893;28;20041;-58
2022/08/31 06:34:32;;;;;;;0.93;0.85;;;;;;;15.43;nan;102235.31;5031551;28;20088;-56
2022/08/31 06:36:58;;;;;;;2.40;0.60;;;;;;;15.52;nan;102241.25;5031750;28;20037;-57
2022/08/31 06:39:23;;;;;;;0.70;0.70;;;;;;;15.57;nan;102236.66;5031615;28;20033;-55
2022/08/31 06:41:51;;;;;;;2.95;0.80;;;;;;;15.62;nan;102228.53;5031064;28;20044;-58
2022/08/31 06:44:19;;;;;;;1.05;0.88;;;;;;;15.58;nan;102201.25;4998355;28;20065;-54
2022/08/31 06:46:45;;;;;;;0.82;0.60;;;;;;;15.56;nan;102186.25;5031513;28;20033;-55
2022/08/31 06:49:10;;;;;;;1.35;0.70;;;;;;;15.94;nan;102239.00;5031583;28;20033;-54
2022/08/31 06:51:37;;;;;;;3.67;1.50;;;;;;;16.05;nan;102244.84;5031465;28;20285;-56
2022/08/31 06:54:07;;;;;;;1.20;0.88;;;;;;;16.24;nan;102261.91;5031610;28;20036;-57
2022/08/31 06:56:34;;;;;;;0.90;0.80;;;;;;;16.36;nan;102265.06;5031554;28;20034;-57
2022/08/31 06:59:00;;;;;;;2.35;0.90;;;;;;;16.38;nan;102244.63;5031626;28;20136;-58
2022/08/31 07:01:27;;;;;;;1.52;0.80;;;;;;;16.57;nan;102261.72;5031416;28;20033;-59
2022/08/31 07:03:54;;;;;;;2.83;0.85;;;;;;;16.24;nan;102189.31;5047571;28;20116;-56
2022/08/31 07:06:22;;;;;;;1.98;1.00;;;;;;;16.39;nan;102195.88;5035215;28;20421;-59
2022/08/31 07:08:50;;;;;;;2.55;1.10;;;;;;;16.85;nan;102268.69;5034959;28;20389;-56
2022/08/31 07:11:25;;;;;;;0.65;0.65;;;;;;;16.61;nan;102212.81;5017404;28;20037;-54
2022/08/31 07:13:52;;;;;;;1.33;0.57;;;;;;;17.00;nan;102269.03;5016933;28;20030;-56
2022/08/31 07:16:19;;;;;;;1.20;1.10;;;;;;;17.08;nan;102273.16;5034910;28;20029;-56
2022/08/31 07:18:45;;;;;;;1.50;0.60;;;;;;;16.87;nan;102228.72;5017062;28;20038;-55
2022/08/31 07:21:22;;;;;;;2.92;0.88;;;;;;;17.26;nan;102266.28;5035002;28;20030;-54
2022/08/31 07:23:49;;;;;;;1.27;0.68;;;;;;;16.96;nan;102209.75;5034629;28;20112;-57
2022/08/31 07:26:26;;;;;;;2.78;0.70;;;;;;;17.43;nan;102282.47;5050090;28;20087;-55
2022/08/31 07:28:56;;;;;;;1.05;0.60;;;;;;;17.35;nan;102260.63;5016799;28;20032;-57
2022/08/31 07:31:24;;;;;;;1.38;1.05;;;;;;;17.67;nan;102294.91;5034289;28;20076;-53
2022/08/31 07:33:52;;;;;;;2.72;0.98;;;;;;;17.72;nan;102282.25;5034582;28;20048;-59
2022/08/31 07:36:18;;;;;;;2.03;0.88;;;;;;;17.71;nan;102266.34;5016859;28;20034;-57
2022/08/31 07:44:13;;;;;;;1.52;0.75;;;;;;;18.03;nan;102287.25;5019432;28;20057;-58
2022/08/31 07:46:39;;;;;;;4.10;0.73;;;;;;;18.10;nan;102294.06;5034253;28;20112;-55
2022/08/31 07:49:12;;;;;;;0.80;0.45;;;;;;;18.10;nan;102290.50;5034477;28;20177;-55
2022/08/31 07:51:42;;;;;;;1.63;0.60;;;;;;;18.24;nan;102283.69;5034239;28;20037;-54
2022/08/31 07:54:09;;;;;;;2.58;0.68;;;;;;;18.27;nan;102272.91;5034024;28;20362;-58
2022/08/31 07:56:36;;;;;;;0.77;0.52;;;;;;;18.62;nan;102298.13;5016694;28;20388;-56
2022/08/31 07:59:02;;;;;;;3.33;0.60;;;;;;;18.87;nan;102306.81;5034378;28;20120;-54
2022/08/31 08:01:31;;;;;;;0.93;0.70;;;;;;;19.07;nan;102266.75;5034175;28;20437;-58
2022/08/31 08:03:58;;;;;;;0.85;0.60;;;;;;;19.59;nan;102273.25;5033948;28;20030;-59
2022/08/31 08:06:27;;;;;;;0.60;0.50;;;;;;;20.13;nan;102307.16;5033832;28;20033;-54
2022/08/31 08:08:54;;;;;;;3.65;0.70;;;;;;;20.56;nan;102323.75;5048825;28;20057;-56
2022/08/31 08:11:20;;;;;;;3.90;0.85;;;;;;;20.59;nan;102278.13;5034078;28;20477;-53
2022/08/31 08:13:46;;;;;;;1.25;0.65;;;;;;;21.32;nan;102326.03;5049011;28;20120;-57
2022/08/31 08:16:12;;;;;;;1.80;0.93;;;;;;;21.33;nan;102276.88;5048045;28;20030;-58
2022/08/31 08:18:37;;;;;;;3.60;0.68;;;;;;;21.68;nan;102323.16;5015702;28;20481;-56
2022/08/31 08:21:03;;;;;;;2.45;0.50;;;;;;;21.92;nan;102332.53;5033596;28;20521;-60
2022/08/31 08:23:28;;;;;;;2.67;0.70;;;;;;;22.03;nan;102335.50;5015830;28;20040;-61
2022/08/31 08:25:55;;;;;;;1.05;0.80;;;;;;;22.03;nan;102330.13;5015966;28;20440;-59
2022/08/31 08:28:20;;;;;;;1.83;0.52;;;;;;;22.31;nan;102322.22;5033949;28;20067;-59
2022/08/31 08:30:53;;;;;;;3.72;0.73;;;;;;;22.57;nan;102344.84;5015697;28;20144;-57
2022/08/31 08:33:20;;;;;;;2.92;0.47;;;;;;;22.77;nan;102335.63;5032917;28;20041;-59
2022/08/31 08:35:45;;;;;;;1.38;0.60;;;;;;;22.25;nan;102287.69;5015261;28;20037;-59
2022/08/31 08:38:11;;;;;;;1.77;0.75;;;;;;;22.77;nan;102339.19;4999656;28;20099;-61
2022/08/31 08:40:41;;;;;;;1.63;0.80;;;;;;;;;;5033276;28;20045;-59
2022/08/31 08:43:08;;;;;;;2.10;0.63;;;;;;;-142.64;100.00;62639.88;5033259;28;20362;-57
2022/08/31 08:45:34;;;;;;;1.80;0.50;;;;;;;22.55;100.00;58178.75;5033367;28;20144;-54
2022/08/31 08:47:59;;;;;;;3.28;0.57;;;;;;;;;;5033235;28;20064;-55
2022/08/31 08:50:26;;;;;;;1.75;0.82;;;;;;;;;;5032957;28;20037;-55
2022/08/31 08:52:53;;;;;;;2.17;0.50;;;;;;;;;;5033265;28;20495;-54
2022/08/31 08:55:21;;;;;;;0.57;0.57;;;;;;;23.20;nan;102331.22;5015900;28;20033;-59
2022/08/31 08:57:51;;;;;;;3.13;1.00;;;;;;;23.08;nan;102287.19;5015355;28;20047;-55
2022/08/31 09:00:23;;;;;;;3.22;0.82;;;;;;;22.82;nan;102325.50;4999929;28;20860;-57
2022/08/31 09:03:15;;;;;;;6.38;0.93;;;;;;;22.92;nan;102346.34;5032408;28;20029;-58
2022/08/31 09:06:00;;;;;;;4.28;0.68;;;;;;;23.06;nan;102339.28;5013578;28;20451;-58
2022/08/31 09:08:31;;;;;;;2.22;0.80;;;;;;;23.16;nan;102346.66;5030390;28;20058;-59
2022/08/31 09:11:26;;;;;;;0.82;0.60;;;;;;;23.89;nan;102342.94;5032614;28;20048;-57
2022/08/31 09:14:04;;;;;;;3.28;0.90;;;;;;;24.58;nan;102350.03;5031505;28;20473;-56
2022/08/31 09:17:00;;;;;;;1.10;0.70;;;;;;;24.67;nan;102372.78;5032421;28;20029;-58
2022/08/31 09:19:25;;;;;;;1.13;0.70;;;;;;;24.98;nan;102361.72;5023553;28;20068;-60
2022/08/31 09:21:54;;;;;;;2.95;0.88;;;;;;;25.43;nan;102360.31;5033073;28;20469;-56
2022/08/31 09:24:29;;;;;;;1.42;0.60;;;;;;;25.37;nan;102304.13;5014748;28;20122;-58
2022/08/31 09:27:17;;;;;;;1.65;0.90;;;;;;;24.99;nan;102364.28;5032252;28;20033;-57
2022/08/31 09:29:55;;;;;;;1.38;1.00;;;;;;;24.99;nan;102312.22;5032388;28;20051;-60
2022/08/31 09:32:23;;;;;;;1.33;0.68;;;;;;;25.16;nan;102304.69;5032548;28;20033;-60
2022/08/31 09:35:00;;;;;;;1.77;0.77;;;;;;;25.15;nan;102356.00;5032491;28;20038;-58
2022/08/31 09:37:44;;;;;;;1.58;0.70;;;;;;;25.16;nan;102326.25;5032288;28;20036;-59
2022/08/31 09:40:20;;;;;;;2.65;0.90;;;;;;;25.21;nan;102365.50;5032177;28;20115;-59
2022/08/31 09:42:58;;;;;;;2.15;1.15;;;;;;;25.46;nan;102354.72;5032485;28;20029;-59
2022/08/31 09:45:34;;;;;;;0.93;0.63;;;;;;;25.86;nan;102334.72;5014143;28;20045;-59
2022/08/31 09:48:02;;;;;;;2.53;1.00;;;;;;;26.59;nan;102349.03;5016113;28;20056;-60
2022/08/31 09:50:33;;;;;;;2.03;0.85;;;;;;;26.67;nan;102356.56;5014306;28;20040;-60
2022/08/31 09:56:04;;;;;;;1.17;0.68;;;;;;;26.76;nan;102347.75;5032456;28;20522;-61
2022/08/31 09:58:31;;;;;;;2.83;1.00;;;;;;;26.69;nan;102304.16;5032098;28;20029;-61
2022/08/31 10:01:11;;;;;;;3.30;1.20;;;;;;;27.00;nan;102348.56;5030648;28;20125;-62
2022/08/31 10:03:37;;;;;;;1.85;0.82;;;;;;;27.08;nan;102305.63;5015464;28;20033;-61
2022/08/31 10:06:03;;;;;;;1.42;0.80;;;;;;;26.54;nan;102301.75;5031072;28;20033;-61
2022/08/31 10:08:40;;;;;;;2.58;1.05;;;;;;;26.94;nan;102348.22;5032114;28;20496;-62
2022/08/31 10:11:10;;;;;;;0.90;0.70;;;;;;;27.12;nan;102338.66;5013853;28;20041;-61
2022/08/31 10:13:43;;;;;;;4.80;1.27;;;;;;;27.32;nan;102346.91;5014090;28;20036;-62
2022/08/31 10:16:13;;;;;;;1.33;1.00;;;;;;;27.34;nan;102336.88;5014391;28;20025;-61
2022/08/31 10:18:49;;;;;;;2.92;1.20;;;;;;;27.45;nan;102335.16;5047181;28;20053;-62
2022/08/31 10:21:20;;;;;;;1.27;0.88;;;;;;;27.09;nan;102304.63;5047075;28;20022;-63
2022/08/31 10:23:55;;;;;;;1.92;1.10;;;;;;;26.83;nan;102325.56;5013929;28;20034;-64
2022/08/31 10:26:35;;;;;;;3.20;1.05;;;;;;;27.10;nan;102311.75;5032301;28;20034;-63
2022/08/31 10:29:05;;;;;;;2.45;0.70;;;;;;;26.66;nan;102274.66;4998351;28;20384;-62
2022/08/31 10:31:37;;;;;;;3.83;1.85;;;;;;;25.97;nan;102266.50;5031124;28;20491;-64
2022/08/31 10:36:59;;;;;;;2.08;1.20;;;;;;;25.39;nan;102327.34;5044926;28;20162;-62
2022/08/31 10:39:35;;;;;;;5.85;1.05;;;;;;;24.93;nan;102264.16;5016045;28;20116;-62
2022/08/31 10:42:04;;;;;;;2.53;1.00;;;;;;;24.67;nan;102260.56;5018147;28;20034;-63
2022/08/31 10:44:38;;;;;;;4.55;1.58;;;;;;;24.53;nan;102319.88;5017995;28;20503;-64
2022/08/31 10:47:04;;;;;;;3.90;1.10;;;;;;;24.81;nan;102303.59;5051003;28;20380;-63
2022/08/31 10:49:34;;;;;;;1.27;0.77;;;;;;;25.03;nan;102308.38;5018211;28;20029;-63
2022/08/31 10:52:04;;;;;;;2.20;1.20;;;;;;;26.04;nan;102303.69;5035546;28;20073;-63
2022/08/31 10:54:35;;;;;;;;;;;;;;;26.55;nan;102300.78;5050881;28;20041;-62
2022/08/31 10:57:00;;;;;;;;;;;;;;;26.60;nan;102304.84;5018299;28;19921;-63
2022/08/31 10:59:33;;;;;;;;;;;;;;;25.51;nan;102312.16;5035847;28;20296;-65
2022/08/31 11:02:16;;;;;;;;;;;;;;;25.06;nan;102298.25;5035750;28;20391;-61
2022/08/31 11:04:42;;;;;;;;;;;;;;;25.34;nan;102305.22;5035782;28;19913;-63
2022/08/31 11:07:23;;;;;;;;;;;;;;;25.77;nan;102300.34;5017904;28;20011;-63
2022/08/31 11:09:49;;;;;;;;;;;;;;;26.72;nan;102311.16;5035289;28;19921;-63
2022/08/31 11:12:20;;;;;;;;;;;;;;;27.19;nan;102311.03;5035746;28;19920;-64
2022/08/31 11:15:07;;;;;;;;;;;;;;;27.67;nan;102310.84;5001893;28;20402;-65
2022/08/31 11:17:32;;;;;;;;;;;;;;;27.84;nan;102326.56;5035536;28;19920;-63
2022/08/31 11:20:13;;;;;;;;;;;;;;;27.20;nan;102310.03;5035367;28;20003;-64
2022/08/31 11:22:42;;;;;;;;;;;;;;;26.95;nan;102309.38;5017603;28;19936;-63
2022/08/31 11:25:26;;;;;;;;;;;;;;;27.44;nan;102317.25;5035454;28;19913;-65
2022/08/31 11:28:01;;;;;;;;;;;;;;;28.94;nan;102314.47;5035411;28;20368;-64
2022/08/31 11:30:28;;;;;;;;;;;;;;;28.31;nan;102315.34;5035151;28;20003;-64
2022/08/31 11:32:53;;;;;;;;;;;;;;;28.24;nan;102311.47;5036163;28;19924;-63
2022/08/31 11:35:37;;;;;;;;;;;;;;;29.49;nan;102310.50;5035671;28;19913;-64
2022/08/31 11:38:02;;;;;;;;;;;;;;;29.48;nan;102300.66;5034968;28;19975;-66
2022/08/31 11:40:40;;;;;;;;;;;;;;;29.40;nan;102311.31;5034933;28;20369;-63
2022/08/31 11:43:06;;;;;;;;;;;;;;;29.94;nan;102299.25;5034961;28;19917;-65
2022/08/31 11:45:33;;;;;;;;;;;;;;;29.62;nan;102280.44;5017569;28;20313;-63
2022/08/31 11:47:59;;;;;;;;;;;;;;;29.77;nan;102278.19;5034438;28;20015;-62
2022/08/31 11:50:24;;;;;;;;;;;;;;;30.30;nan;102284.16;5034702;28;19917;-65
2022/08/31 11:52:52;;;;;;;;;;;;;;;30.33;nan;102281.13;5034844;28;19935;-66
2022/08/31 11:55:20;;;;;;;;;;;;;;;30.21;nan;102282.28;5017406;28;19917;-63
2022/08/31 11:58:09;;;;;;;;;;;;;;;29.45;nan;102287.34;5034514;28;20300;-63
2022/08/31 12:00:46;;;;;;;;;;;;;;;29.83;nan;102296.66;5034901;28;19909;-63
2022/08/31 12:03:30;;;;;;;;;;;;;;;30.05;nan;102286.41;5035167;28;19971;-64
2022/08/31 12:05:56;;;;;;;;;;;;;;;30.02;nan;102273.13;5016414;28;19962;-64
2022/08/31 12:08:23;;;;;;;;;;;;;;;30.31;nan;102278.56;5017231;28;19913;-64
2022/08/31 12:10:52;;;;;;;;;;;;;;;29.94;nan;102278.41;5034223;28;20368;-63
2022/08/31 12:13:24;;;;;;;;;;;;;;;30.17;nan;102268.13;5016645;28;20036;-62
2022/08/31 12:15:49;;;;;;;;;;;;;;;31.08;nan;102268.50;5017151;28;19975;-63